createdAt,value
2022-07-25T00:00:10.676Z,0.00
2022-07-25T00:01:10.670Z,0.00
2022-07-25T00:02:10.741Z,0.00
2022-07-25T00:03:11.001Z,0.00
2022-07-25T00:04:11.269Z,0.00
2022-07-25T00:05:10.642Z,0.00
2022-07-25T00:06:13.348Z,0.00
2022-07-25T00:07:11.624Z,0.00
2022-07-25T00:08:10.618Z,0.00
2022-07-25T00:09:10.635Z,0.00
2022-07-25T00:10:10.604Z,0.00
2022-07-25T00:11:10.589Z,0.00
2022-07-25T00:12:11.293Z,0.00
2022-07-25T00:13:10.573Z,0.00
2022-07-25T00:14:10.814Z,0.00
2022-07-25T00:15:10.568Z,0.00
2022-07-25T00:16:10.617Z,0.00
2022-07-25T00:17:10.545Z,0.00
2022-07-25T00:18:10.536Z,0.00
2022-07-25T00:19:10.564Z,0.00
2022-07-25T00:20:10.521Z,0.00
2022-07-25T00:21:10.519Z,0.00
2022-07-25T00:22:10.504Z,0.00
2022-07-25T00:23:10.501Z,0.00
2022-07-25T00:24:10.769Z,0.00
2022-07-25T00:25:10.483Z,0.00
2022-07-25T00:26:10.482Z,0.00
2022-07-25T00:27:10.467Z,0.00
2022-07-25T00:28:10.458Z,0.00
2022-07-25T00:29:10.480Z,0.00
2022-07-25T00:30:10.442Z,0.00
2022-07-25T00:31:10.527Z,0.00
2022-07-25T00:32:10.423Z,0.00
2022-07-25T00:33:10.416Z,0.00
2022-07-25T00:34:10.900Z,0.00
2022-07-25T00:35:10.399Z,0.00
2022-07-25T00:36:10.413Z,0.00
2022-07-25T00:37:10.393Z,0.00
2022-07-25T00:38:10.376Z,0.00
2022-07-25T00:39:10.390Z,0.00
2022-07-25T00:40:10.358Z,0.00
2022-07-25T00:41:10.358Z,0.00
2022-07-25T00:42:10.343Z,0.00
2022-07-25T00:43:10.334Z,0.00
2022-07-25T00:44:10.381Z,0.00
2022-07-25T00:45:10.321Z,0.00
2022-07-25T00:46:10.341Z,0.00
2022-07-25T00:47:10.314Z,0.00
2022-07-25T00:48:10.297Z,0.00
2022-07-25T00:49:11.401Z,0.00
2022-07-25T00:50:10.286Z,0.00
2022-07-25T00:51:10.271Z,0.00
2022-07-25T00:52:11.268Z,0.00
2022-07-25T00:53:10.264Z,0.00
2022-07-25T00:54:10.277Z,0.00
2022-07-25T00:55:10.248Z,0.00
2022-07-25T00:56:10.240Z,0.00
2022-07-25T00:57:10.231Z,0.00
2022-07-25T00:58:10.231Z,0.00
2022-07-25T00:59:10.245Z,0.00
2022-07-25T01:00:10.211Z,0.00
2022-07-25T01:01:10.281Z,0.00
2022-07-25T01:02:10.225Z,0.00
2022-07-25T01:03:10.241Z,0.00
2022-07-25T01:04:10.222Z,0.00
2022-07-25T01:05:10.416Z,0.00
2022-07-25T01:06:10.158Z,0.00
2022-07-25T01:07:11.160Z,0.00
2022-07-25T01:08:10.156Z,0.00
2022-07-25T01:09:10.178Z,0.00
2022-07-25T01:10:11.134Z,0.00
2022-07-25T01:11:10.136Z,0.00
2022-07-25T01:12:10.123Z,0.00
2022-07-25T01:13:10.114Z,0.00
2022-07-25T01:14:42.044Z,0.00
2022-07-25T01:15:10.096Z,0.00
2022-07-25T01:16:10.137Z,0.00
2022-07-25T01:17:10.081Z,0.00
2022-07-25T01:18:10.077Z,0.00
2022-07-25T01:19:10.206Z,0.00
2022-07-25T01:20:10.061Z,0.00
2022-07-25T01:21:10.062Z,0.00
2022-07-25T01:22:10.046Z,0.00
2022-07-25T01:23:10.036Z,0.00
2022-07-25T01:24:10.049Z,0.00
2022-07-25T01:25:10.020Z,0.00
2022-07-25T01:26:10.016Z,0.00
2022-07-25T01:27:10.025Z,0.00
2022-07-25T01:28:10.998Z,0.00
2022-07-25T01:29:10.023Z,0.00
2022-07-25T01:30:09.982Z,0.00
2022-07-25T01:31:10.026Z,0.00
2022-07-25T01:32:09.965Z,0.00
2022-07-25T01:33:09.963Z,0.00
2022-07-25T01:34:10.191Z,0.00
2022-07-25T01:35:09.942Z,0.00
2022-07-25T01:36:09.938Z,0.00
2022-07-25T01:37:09.925Z,0.00
2022-07-25T01:38:09.923Z,0.00
2022-07-25T01:39:09.941Z,0.00
2022-07-25T01:40:09.909Z,0.00
2022-07-25T01:41:09.895Z,0.00
2022-07-25T01:42:09.885Z,0.00
2022-07-25T01:43:09.882Z,0.00
2022-07-25T01:44:10.282Z,0.00
2022-07-25T01:45:09.859Z,0.00
2022-07-25T01:46:09.892Z,0.00
2022-07-25T01:47:09.855Z,0.00
2022-07-25T01:48:09.847Z,0.00
2022-07-25T01:49:09.906Z,0.00
2022-07-25T01:50:10.826Z,0.00
2022-07-25T01:51:09.825Z,0.00
2022-07-25T01:52:09.808Z,0.00
2022-07-25T01:53:09.804Z,0.00
2022-07-25T01:54:10.459Z,0.00
2022-07-25T01:55:09.794Z,0.00
2022-07-25T01:56:10.164Z,0.00
2022-07-25T01:57:09.776Z,0.00
2022-07-25T01:58:09.770Z,0.00
2022-07-25T01:59:09.787Z,0.00
2022-07-25T02:00:09.754Z,0.00
2022-07-25T02:01:09.812Z,0.00
2022-07-25T02:02:09.734Z,0.00
2022-07-25T02:03:09.727Z,0.00
2022-07-25T02:04:10.302Z,0.00
2022-07-25T02:05:09.750Z,0.00
2022-07-25T02:06:09.711Z,0.00
2022-07-25T02:07:09.697Z,0.00
2022-07-25T02:08:09.944Z,0.00
2022-07-25T02:09:09.708Z,0.00
2022-07-25T02:10:09.705Z,0.00
2022-07-25T02:11:09.668Z,0.00
2022-07-25T02:12:09.662Z,0.00
2022-07-25T02:13:09.656Z,0.00
2022-07-25T02:14:09.878Z,0.00
2022-07-25T02:15:09.666Z,0.00
2022-07-25T02:16:09.633Z,0.00
2022-07-25T02:17:09.672Z,0.00
2022-07-25T02:18:09.632Z,0.00
2022-07-25T02:19:09.613Z,0.00
2022-07-25T02:20:09.628Z,0.00
2022-07-25T02:21:13.936Z,0.00
2022-07-25T02:22:10.592Z,0.00
2022-07-25T02:23:09.583Z,0.00
2022-07-25T02:24:10.075Z,0.00
2022-07-25T02:25:09.593Z,0.00
2022-07-25T02:26:09.561Z,0.00
2022-07-25T02:27:09.559Z,0.00
2022-07-25T02:28:10.462Z,0.00
2022-07-25T02:29:09.541Z,0.00
2022-07-25T02:30:09.560Z,0.00
2022-07-25T02:31:09.577Z,0.00
2022-07-25T02:32:09.519Z,0.00
2022-07-25T02:33:09.521Z,0.00
2022-07-25T02:34:09.775Z,0.00
2022-07-25T02:35:09.944Z,0.00
2022-07-25T02:36:09.490Z,0.00
2022-07-25T02:37:09.480Z,0.00
2022-07-25T02:38:09.475Z,0.00
2022-07-25T02:39:09.464Z,0.00
2022-07-25T02:40:09.485Z,0.00
2022-07-25T02:41:09.456Z,0.00
2022-07-25T02:42:09.440Z,0.00
2022-07-25T02:43:09.437Z,0.00
2022-07-25T02:44:09.782Z,0.00
2022-07-25T02:45:09.466Z,0.00
2022-07-25T02:46:09.487Z,0.00
2022-07-25T02:47:09.404Z,0.00
2022-07-25T02:48:09.401Z,0.00
2022-07-25T02:49:09.446Z,0.00
2022-07-25T02:50:09.421Z,0.00
2022-07-25T02:51:10.375Z,0.00
2022-07-25T02:52:09.381Z,0.00
2022-07-25T02:53:09.362Z,0.00
2022-07-25T02:54:09.537Z,0.00
2022-07-25T02:55:09.982Z,0.00
2022-07-25T02:56:10.359Z,0.00
2022-07-25T02:57:09.333Z,0.00
2022-07-25T02:58:09.328Z,0.00
2022-07-25T02:59:09.319Z,0.00
2022-07-25T03:00:09.342Z,4.00
2022-07-25T03:01:09.361Z,4.00
2022-07-25T03:02:09.303Z,0.00
2022-07-25T03:03:09.285Z,0.00
2022-07-25T03:04:09.966Z,4.00
2022-07-25T03:05:09.321Z,0.00
2022-07-25T03:06:09.267Z,4.00
2022-07-25T03:07:09.277Z,4.00
2022-07-25T03:08:09.254Z,4.00
2022-07-25T03:09:09.232Z,4.00
2022-07-25T03:10:11.556Z,4.00
2022-07-25T03:11:09.232Z,4.00
2022-07-25T03:12:09.228Z,4.00
2022-07-25T03:13:09.230Z,4.00
2022-07-25T03:14:09.740Z,8.00
2022-07-25T03:15:09.233Z,8.00
2022-07-25T03:16:09.213Z,12.00
2022-07-25T03:17:09.237Z,12.00
2022-07-25T03:18:09.175Z,12.00
2022-07-25T03:19:09.173Z,16.00
2022-07-25T03:20:09.191Z,16.00
2022-07-25T03:21:09.150Z,20.00
2022-07-25T03:22:09.144Z,20.00
2022-07-25T03:23:09.136Z,24.00
2022-07-25T03:24:09.452Z,28.00
2022-07-25T03:25:15.761Z,28.00
2022-07-25T03:26:10.120Z,32.00
2022-07-25T03:27:09.103Z,36.00
2022-07-25T03:28:09.095Z,36.00
2022-07-25T03:29:09.086Z,44.00
2022-07-25T03:30:09.105Z,48.00
2022-07-25T03:31:09.077Z,52.00
2022-07-25T03:32:09.141Z,56.00
2022-07-25T03:33:09.061Z,56.00
2022-07-25T03:34:09.260Z,64.00
2022-07-25T03:35:09.069Z,68.00
2022-07-25T03:36:09.032Z,72.00
2022-07-25T03:37:09.023Z,80.00
2022-07-25T03:38:09.018Z,88.00
2022-07-25T03:39:09.013Z,92.00
2022-07-25T03:40:09.019Z,100.00
2022-07-25T03:41:10.010Z,108.00
2022-07-25T03:42:08.986Z,112.00
2022-07-25T03:43:08.981Z,124.00
2022-07-25T03:44:09.729Z,132.00
2022-07-25T03:45:08.985Z,140.00
2022-07-25T03:46:09.020Z,152.00
2022-07-25T03:47:08.953Z,164.00
2022-07-25T03:48:09.957Z,180.00
2022-07-25T03:49:08.988Z,196.00
2022-07-25T03:50:08.951Z,212.00
2022-07-25T03:51:08.920Z,224.00
2022-07-25T03:52:08.917Z,240.00
2022-07-25T03:53:09.197Z,264.00
2022-07-25T03:54:09.336Z,292.00
2022-07-25T03:55:08.914Z,308.00
2022-07-25T03:56:08.886Z,328.00
2022-07-25T03:57:08.885Z,340.00
2022-07-25T03:58:08.872Z,348.00
2022-07-25T03:59:08.866Z,372.00
2022-07-25T04:00:08.885Z,400.00
2022-07-25T04:01:08.913Z,428.00
2022-07-25T04:02:08.884Z,452.00
2022-07-25T04:03:08.836Z,480.00
2022-07-25T04:04:09.158Z,500.00
2022-07-25T04:05:08.847Z,524.00
2022-07-25T04:06:08.817Z,556.00
2022-07-25T04:07:08.807Z,580.00
2022-07-25T04:08:08.800Z,608.00
2022-07-25T04:09:08.792Z,644.00
2022-07-25T04:10:08.808Z,676.00
2022-07-25T04:11:08.769Z,708.00
2022-07-25T04:12:08.770Z,744.00
2022-07-25T04:13:08.752Z,796.00
2022-07-25T04:14:09.064Z,824.00
2022-07-25T04:15:08.770Z,848.00
2022-07-25T04:16:12.981Z,884.00
2022-07-25T04:17:10.789Z,924.00
2022-07-25T04:18:08.718Z,968.00
2022-07-25T04:19:08.753Z,1216.00
2022-07-25T04:20:08.729Z,2404.00
2022-07-25T04:21:08.693Z,3748.00
2022-07-25T04:22:08.683Z,4296.00
2022-07-25T04:23:08.679Z,4816.00
2022-07-25T04:24:09.160Z,5484.00
2022-07-25T04:25:08.690Z,6440.00
2022-07-25T04:26:08.658Z,7712.00
2022-07-25T04:27:08.651Z,8268.00
2022-07-25T04:28:08.636Z,7812.00
2022-07-25T04:29:08.632Z,7792.00
2022-07-25T04:30:08.650Z,8120.00
2022-07-25T04:31:08.618Z,8952.00
2022-07-25T04:32:08.656Z,9696.00
2022-07-25T04:33:08.602Z,10044.00
2022-07-25T04:34:08.979Z,10624.00
2022-07-25T04:35:08.613Z,11168.00
2022-07-25T04:36:08.575Z,11232.00
2022-07-25T04:37:08.578Z,10776.00
2022-07-25T04:38:12.052Z,10944.00
2022-07-25T04:39:09.554Z,12032.00
2022-07-25T04:40:08.571Z,14240.00
2022-07-25T04:41:08.541Z,15712.00
2022-07-25T04:42:08.540Z,15680.00
2022-07-25T04:43:08.531Z,16608.00
2022-07-25T04:44:09.246Z,16896.00
2022-07-25T04:45:08.537Z,15392.00
2022-07-25T04:46:08.587Z,12896.00
2022-07-25T04:47:08.495Z,11104.00
2022-07-25T04:48:08.487Z,10584.00
2022-07-25T04:49:08.609Z,10636.00
2022-07-25T04:50:08.509Z,10592.00
2022-07-25T04:51:08.464Z,10568.00
2022-07-25T04:52:08.462Z,10488.00
2022-07-25T04:53:08.456Z,10520.00
2022-07-25T04:54:08.850Z,10556.00
2022-07-25T04:55:08.457Z,10720.00
2022-07-25T04:56:08.429Z,10928.00
2022-07-25T04:57:08.428Z,11088.00
2022-07-25T04:58:08.418Z,11212.00
2022-07-25T04:59:08.405Z,11364.00
2022-07-25T05:00:08.424Z,11524.00
2022-07-25T05:01:08.426Z,11568.00
2022-07-25T05:02:08.430Z,11656.00
2022-07-25T05:03:08.371Z,11780.00
2022-07-25T05:04:08.630Z,12032.00
2022-07-25T05:05:08.400Z,12192.00
2022-07-25T05:06:09.340Z,12864.00
2022-07-25T05:07:09.342Z,14560.00
2022-07-25T05:08:08.334Z,19488.00
2022-07-25T05:09:08.328Z,27904.00
2022-07-25T05:10:08.322Z,31680.00
2022-07-25T05:11:08.336Z,30912.00
2022-07-25T05:12:08.301Z,32608.00
2022-07-25T05:13:08.291Z,34528.00
2022-07-25T05:14:08.626Z,34624.00
2022-07-25T05:15:08.277Z,35520.00
2022-07-25T05:16:08.329Z,37472.00
2022-07-25T05:17:08.280Z,38592.00
2022-07-25T05:18:08.254Z,37984.00
2022-07-25T05:19:08.249Z,38496.00
2022-07-25T05:20:08.238Z,38560.00
2022-07-25T05:21:08.255Z,39136.00
2022-07-25T05:22:08.226Z,39872.00
2022-07-25T05:23:08.217Z,40512.00
2022-07-25T05:24:08.578Z,41344.00
2022-07-25T05:25:08.230Z,41632.00
2022-07-25T05:26:08.221Z,42528.00
2022-07-25T05:27:08.188Z,42848.00
2022-07-25T05:28:08.178Z,43008.00
2022-07-25T05:29:09.174Z,42784.00
2022-07-25T05:30:08.170Z,43584.00
2022-07-25T05:31:08.282Z,44512.00
2022-07-25T05:32:08.166Z,44288.00
2022-07-25T05:33:08.146Z,43680.00
2022-07-25T05:34:08.425Z,45568.00
2022-07-25T05:35:08.164Z,47360.00
2022-07-25T05:36:09.149Z,47104.00
2022-07-25T05:37:08.116Z,46752.00
2022-07-25T05:38:08.110Z,46368.00
2022-07-25T05:39:08.100Z,45920.00
2022-07-25T05:40:08.095Z,35200.00
2022-07-25T05:41:08.113Z,13760.00
2022-07-25T05:42:08.085Z,6692.00
2022-07-25T05:43:08.076Z,5268.00
2022-07-25T05:44:08.326Z,4496.00
2022-07-25T05:45:08.060Z,4180.00
2022-07-25T05:46:08.083Z,4044.00
2022-07-25T05:47:08.116Z,3948.00
2022-07-25T05:48:08.038Z,3884.00
2022-07-25T05:49:08.066Z,3828.00
2022-07-25T05:50:08.022Z,3784.00
2022-07-25T05:51:08.044Z,3744.00
2022-07-25T05:52:12.509Z,3712.00
2022-07-25T05:53:10.002Z,3684.00
2022-07-25T05:54:08.324Z,3664.00
2022-07-25T05:55:07.982Z,3652.00
2022-07-25T05:56:08.006Z,3644.00
2022-07-25T05:57:07.974Z,3644.00
2022-07-25T05:58:07.965Z,3636.00
2022-07-25T05:59:07.958Z,3628.00
2022-07-25T06:00:07.955Z,3628.00
2022-07-25T06:01:07.968Z,3620.00
2022-07-25T06:02:08.049Z,3616.00
2022-07-25T06:03:08.010Z,3604.00
2022-07-25T06:04:08.293Z,3604.00
2022-07-25T06:05:07.915Z,3604.00
2022-07-25T06:06:07.927Z,3604.00
2022-07-25T06:07:07.893Z,3604.00
2022-07-25T06:08:07.885Z,3604.00
2022-07-25T06:09:08.211Z,3596.00
2022-07-25T06:10:07.873Z,3596.00
2022-07-25T06:11:08.311Z,3624.00
2022-07-25T06:12:07.855Z,3580.00
2022-07-25T06:13:07.848Z,3572.00
2022-07-25T06:14:08.134Z,3568.00
2022-07-25T06:15:07.832Z,3556.00
2022-07-25T06:16:07.905Z,3556.00
2022-07-25T06:17:07.811Z,3552.00
2022-07-25T06:18:07.814Z,3544.00
2022-07-25T06:19:07.811Z,3536.00
2022-07-25T06:20:07.800Z,3540.00
2022-07-25T06:21:07.818Z,3536.00
2022-07-25T06:22:07.775Z,3528.00
2022-07-25T06:23:07.775Z,3520.00
2022-07-25T06:24:08.121Z,3512.00
2022-07-25T06:25:07.761Z,3508.00
2022-07-25T06:26:07.778Z,3496.00
2022-07-25T06:27:07.746Z,3480.00
2022-07-25T06:28:07.743Z,3468.00
2022-07-25T06:29:07.734Z,3460.00
2022-07-25T06:30:18.769Z,3452.00
2022-07-25T06:31:09.803Z,3440.00
2022-07-25T06:32:07.714Z,3428.00
2022-07-25T06:33:07.736Z,3412.00
2022-07-25T06:34:08.001Z,3404.00
2022-07-25T06:35:07.700Z,3388.00
2022-07-25T06:36:07.717Z,3376.00
2022-07-25T06:37:07.681Z,3368.00
2022-07-25T06:38:07.669Z,3352.00
2022-07-25T06:39:07.660Z,3340.00
2022-07-25T06:40:07.679Z,3324.00
2022-07-25T06:41:07.667Z,3316.00
2022-07-25T06:42:07.643Z,3304.00
2022-07-25T06:43:07.633Z,3296.00
2022-07-25T06:44:08.279Z,3288.00
2022-07-25T06:45:07.613Z,3272.00
2022-07-25T06:46:07.747Z,3260.00
2022-07-25T06:47:07.665Z,3252.00
2022-07-25T06:48:07.590Z,3236.00
2022-07-25T06:49:07.640Z,3220.00
2022-07-25T06:50:07.597Z,3212.00
2022-07-25T06:51:07.590Z,3192.00
2022-07-25T06:52:07.552Z,3188.00
2022-07-25T06:53:07.552Z,3176.00
2022-07-25T06:54:07.920Z,3164.00
2022-07-25T06:55:07.541Z,3164.00
2022-07-25T06:56:07.545Z,3152.00
2022-07-25T06:57:07.520Z,3148.00
2022-07-25T06:58:07.514Z,3144.00
2022-07-25T06:59:07.505Z,3140.00
2022-07-25T07:00:07.500Z,3140.00
2022-07-25T07:01:07.579Z,3136.00
2022-07-25T07:02:07.484Z,3128.00
2022-07-25T07:03:07.526Z,3128.00
2022-07-25T07:04:07.808Z,3120.00
2022-07-25T07:05:07.459Z,3124.00
2022-07-25T07:06:07.474Z,3120.00
2022-07-25T07:07:07.442Z,3120.00
2022-07-25T07:08:07.432Z,3120.00
2022-07-25T07:09:07.447Z,3116.00
2022-07-25T07:10:07.436Z,3112.00
2022-07-25T07:11:07.433Z,3116.00
2022-07-25T07:12:07.403Z,3108.00
2022-07-25T07:13:07.631Z,3104.00
2022-07-25T07:14:39.899Z,3100.00
2022-07-25T07:15:07.376Z,3096.00
2022-07-25T07:16:07.441Z,3096.00
2022-07-25T07:17:07.363Z,3096.00
2022-07-25T07:18:07.368Z,3096.00
2022-07-25T07:19:07.644Z,3092.00
2022-07-25T07:20:08.344Z,3084.00
2022-07-25T07:21:07.348Z,3076.00
2022-07-25T07:22:08.327Z,3072.00
2022-07-25T07:23:07.324Z,3068.00
2022-07-25T07:24:18.500Z,3064.00
2022-07-25T07:25:08.315Z,3060.00
2022-07-25T07:26:07.472Z,3060.00
2022-07-25T07:27:07.292Z,3056.00
2022-07-25T07:28:07.281Z,3056.00
2022-07-25T07:29:07.529Z,3048.00
2022-07-25T07:30:07.270Z,3044.00
2022-07-25T07:31:16.422Z,3040.00
2022-07-25T07:32:09.290Z,3028.00
2022-07-25T07:33:07.245Z,3024.00
2022-07-25T07:34:07.228Z,3016.00
2022-07-25T07:35:07.225Z,3016.00
2022-07-25T07:36:07.219Z,3016.00
2022-07-25T07:37:07.236Z,3012.00
2022-07-25T07:38:07.219Z,3008.00
2022-07-25T07:39:07.643Z,3000.00
2022-07-25T07:40:07.184Z,2992.00
2022-07-25T07:41:07.192Z,2992.00
2022-07-25T07:42:07.199Z,2980.00
2022-07-25T07:43:07.164Z,2972.00
2022-07-25T07:44:07.156Z,2964.00
2022-07-25T07:45:07.147Z,2952.00
2022-07-25T07:46:07.183Z,2948.00
2022-07-25T07:47:07.160Z,2944.00
2022-07-25T07:48:08.126Z,2932.00
2022-07-25T07:49:08.571Z,2932.00
2022-07-25T07:50:07.109Z,2924.00
2022-07-25T07:51:07.100Z,2920.00
2022-07-25T07:52:07.123Z,2920.00
2022-07-25T07:53:07.088Z,2924.00
2022-07-25T07:54:07.074Z,2924.00
2022-07-25T07:55:07.061Z,2920.00
2022-07-25T07:56:08.065Z,2916.00
2022-07-25T07:57:07.076Z,2912.00
2022-07-25T07:58:08.050Z,2912.00
2022-07-25T07:59:07.451Z,2908.00
2022-07-25T08:00:07.038Z,2900.00
2022-07-25T08:01:07.034Z,2896.00
2022-07-25T08:02:07.102Z,2888.00
2022-07-25T08:03:07.034Z,2892.00
2022-07-25T08:04:08.036Z,2880.00
2022-07-25T08:05:07.005Z,2876.00
2022-07-25T08:06:06.992Z,2864.00
2022-07-25T08:07:07.008Z,2856.00
2022-07-25T08:08:06.975Z,2844.00
2022-07-25T08:09:07.304Z,2840.00
2022-07-25T08:10:06.964Z,2828.00
2022-07-25T08:11:06.958Z,2824.00
2022-07-25T08:12:06.982Z,2816.00
2022-07-25T08:13:06.941Z,2804.00
2022-07-25T08:14:07.379Z,2804.00
2022-07-25T08:15:06.932Z,2796.00
2022-07-25T08:16:07.032Z,2796.00
2022-07-25T08:17:06.935Z,2788.00
2022-07-25T08:18:06.912Z,2784.00
2022-07-25T08:19:07.895Z,2780.00
2022-07-25T08:20:27.894Z,2780.00
2022-07-25T08:21:08.906Z,2772.00
2022-07-25T08:22:06.931Z,2772.00
2022-07-25T08:23:06.866Z,2768.00
2022-07-25T08:24:07.371Z,2768.00
2022-07-25T08:25:06.865Z,2760.00
2022-07-25T08:26:06.848Z,2764.00
2022-07-25T08:27:06.864Z,2764.00
2022-07-25T08:28:06.831Z,2764.00
2022-07-25T08:29:18.879Z,2760.00
2022-07-25T08:30:08.814Z,2760.00
2022-07-25T08:31:06.871Z,2764.00
2022-07-25T08:32:06.830Z,2768.00
2022-07-25T08:33:06.794Z,2768.00
2022-07-25T08:34:07.218Z,2760.00
2022-07-25T08:35:11.211Z,2764.00
2022-07-25T08:36:07.768Z,2756.00
2022-07-25T08:37:06.784Z,2760.00
2022-07-25T08:38:06.755Z,2760.00
2022-07-25T08:39:06.740Z,2760.00
2022-07-25T08:40:06.736Z,2756.00
2022-07-25T08:41:06.733Z,2760.00
2022-07-25T08:42:10.915Z,2752.00
2022-07-25T08:43:07.715Z,2760.00
2022-07-25T08:44:06.987Z,2760.00
2022-07-25T08:45:06.706Z,2756.00
2022-07-25T08:46:06.747Z,2760.00
2022-07-25T08:47:06.704Z,2760.00
2022-07-25T08:48:06.689Z,2752.00
2022-07-25T08:49:06.759Z,2756.00
2022-07-25T08:50:06.670Z,2752.00
2022-07-25T08:51:06.656Z,2748.00
2022-07-25T08:52:06.678Z,2752.00
2022-07-25T08:53:31.527Z,2748.00
2022-07-25T08:54:08.955Z,2744.00
2022-07-25T08:55:06.634Z,2740.00
2022-07-25T08:56:14.791Z,2740.00
2022-07-25T08:57:08.643Z,2736.00
2022-07-25T08:58:06.614Z,2740.00
2022-07-25T08:59:06.601Z,2740.00
2022-07-25T09:00:06.593Z,2736.00
2022-07-25T09:01:06.598Z,2744.00
2022-07-25T09:02:06.648Z,2740.00
2022-07-25T09:03:06.689Z,2740.00
2022-07-25T09:04:07.006Z,2740.00
2022-07-25T09:05:06.561Z,2740.00
2022-07-25T09:06:06.548Z,2740.00
2022-07-25T09:07:08.291Z,2736.00
2022-07-25T09:08:07.526Z,2728.00
2022-07-25T09:09:06.531Z,2732.00
2022-07-25T09:10:06.516Z,2728.00
2022-07-25T09:11:06.509Z,2732.00
2022-07-25T09:12:06.562Z,2736.00
2022-07-25T09:13:06.493Z,2736.00
2022-07-25T09:14:07.238Z,2736.00
2022-07-25T09:15:06.478Z,2732.00
2022-07-25T09:16:06.533Z,2728.00
2022-07-25T09:17:06.501Z,2720.00
2022-07-25T09:18:09.991Z,2716.00
2022-07-25T09:19:06.449Z,2720.00
2022-07-25T09:20:06.447Z,2708.00
2022-07-25T09:21:06.427Z,2720.00
2022-07-25T09:22:07.507Z,2720.00
2022-07-25T09:23:06.426Z,2720.00
2022-07-25T09:24:06.853Z,2720.00
2022-07-25T09:25:06.407Z,2720.00
2022-07-25T09:26:06.403Z,2720.00
2022-07-25T09:27:06.423Z,2716.00
2022-07-25T09:28:06.393Z,2720.00
2022-07-25T09:29:06.382Z,2716.00
2022-07-25T09:30:06.376Z,2724.00
2022-07-25T09:31:06.413Z,2732.00
2022-07-25T09:32:06.391Z,2736.00
2022-07-25T09:33:06.386Z,2732.00
2022-07-25T09:34:06.560Z,2708.00
2022-07-25T09:35:06.336Z,2700.00
2022-07-25T09:36:06.326Z,2692.00
2022-07-25T09:37:06.340Z,2712.00
2022-07-25T09:38:06.307Z,2704.00
2022-07-25T09:39:06.304Z,2712.00
2022-07-25T09:40:06.300Z,2700.00
2022-07-25T09:41:06.293Z,2704.00
2022-07-25T09:42:06.317Z,2720.00
2022-07-25T09:43:06.306Z,2724.00
2022-07-25T09:44:06.554Z,2724.00
2022-07-25T09:45:06.263Z,2676.00
2022-07-25T09:46:06.299Z,2712.00
2022-07-25T09:47:06.310Z,2732.00
2022-07-25T09:48:06.244Z,2740.00
2022-07-25T09:49:06.310Z,2744.00
2022-07-25T09:50:06.222Z,2724.00
2022-07-25T09:51:06.223Z,2724.00
2022-07-25T09:52:06.217Z,2748.00
2022-07-25T09:53:06.237Z,2756.00
2022-07-25T09:54:06.571Z,2776.00
2022-07-25T09:55:06.193Z,2804.00
2022-07-25T09:56:06.208Z,2796.00
2022-07-25T09:57:06.180Z,2800.00
2022-07-25T09:58:06.206Z,2840.00
2022-07-25T09:59:06.175Z,2840.00
2022-07-25T10:00:06.151Z,2836.00
2022-07-25T10:01:06.237Z,2844.00
2022-07-25T10:02:06.145Z,2876.00
2022-07-25T10:03:06.236Z,2904.00
2022-07-25T10:04:06.415Z,2920.00
2022-07-25T10:05:06.116Z,2916.00
2022-07-25T10:06:06.123Z,2940.00
2022-07-25T10:07:06.111Z,2976.00
2022-07-25T10:08:06.123Z,3028.00
2022-07-25T10:09:06.093Z,3084.00
2022-07-25T10:10:06.084Z,3124.00
2022-07-25T10:11:06.077Z,3128.00
2022-07-25T10:12:06.072Z,3192.00
2022-07-25T10:13:10.258Z,3256.00
2022-07-25T10:14:07.375Z,3296.00
2022-07-25T10:15:06.053Z,3364.00
2022-07-25T10:16:06.043Z,3420.00
2022-07-25T10:17:06.178Z,3472.00
2022-07-25T10:18:06.059Z,3460.00
2022-07-25T10:19:06.044Z,3456.00
2022-07-25T10:20:06.017Z,3632.00
2022-07-25T10:21:22.862Z,3276.00
2022-07-25T10:22:08.008Z,3196.00
2022-07-25T10:23:06.018Z,2860.00
2022-07-25T10:24:06.409Z,3296.00
2022-07-25T10:25:06.012Z,3012.00
2022-07-25T10:26:05.977Z,2660.00
2022-07-25T10:27:05.969Z,2116.00
2022-07-25T10:28:05.985Z,2100.00
2022-07-25T10:29:05.958Z,1988.00
2022-07-25T10:30:05.971Z,1844.00
2022-07-25T10:31:06.007Z,1796.00
2022-07-25T10:32:05.936Z,1788.00
2022-07-25T10:33:05.950Z,1756.00
2022-07-25T10:34:06.283Z,1796.00
2022-07-25T10:35:05.916Z,1808.00
2022-07-25T10:36:05.934Z,1816.00
2022-07-25T10:37:05.902Z,1864.00
2022-07-25T10:38:05.914Z,1920.00
2022-07-25T10:39:05.881Z,1904.00
2022-07-25T10:40:05.881Z,1960.00
2022-07-25T10:41:05.863Z,2100.00
2022-07-25T10:42:05.858Z,2360.00
2022-07-25T10:43:05.879Z,2372.00
2022-07-25T10:44:06.159Z,2136.00
2022-07-25T10:45:05.839Z,2240.00
2022-07-25T10:46:05.898Z,2248.00
2022-07-25T10:47:05.833Z,2440.00
2022-07-25T10:48:05.858Z,2800.00
2022-07-25T10:49:06.274Z,3464.00
2022-07-25T10:50:19.051Z,3588.00
2022-07-25T10:51:07.799Z,3612.00
2022-07-25T10:52:05.794Z,3684.00
2022-07-25T10:53:05.820Z,3692.00
2022-07-25T10:54:05.778Z,3656.00
2022-07-25T10:55:05.772Z,3608.00
2022-07-25T10:56:06.639Z,3592.00
2022-07-25T10:57:06.766Z,3560.00
2022-07-25T10:58:17.556Z,3224.00
2022-07-25T10:59:08.140Z,3164.00
2022-07-25T11:00:05.736Z,3164.00
2022-07-25T11:01:05.855Z,3192.00
2022-07-25T11:02:05.810Z,3212.00
2022-07-25T11:03:05.806Z,3068.00
2022-07-25T11:04:05.735Z,3428.00
2022-07-25T11:05:05.704Z,3380.00
2022-07-25T11:06:05.694Z,3380.00
2022-07-25T11:07:05.692Z,3396.00
2022-07-25T11:08:21.062Z,3264.00
2022-07-25T11:09:08.055Z,2620.00
2022-07-25T11:10:05.672Z,2140.00
2022-07-25T11:11:05.682Z,2796.00
2022-07-25T11:12:05.657Z,2592.00
2022-07-25T11:13:05.660Z,3264.00
2022-07-25T11:14:05.667Z,3304.00
2022-07-25T11:15:05.644Z,3412.00
2022-07-25T11:16:05.633Z,3356.00
2022-07-25T11:17:05.656Z,3252.00
2022-07-25T11:18:05.611Z,3268.00
2022-07-25T11:19:05.892Z,2632.00
2022-07-25T11:20:05.607Z,2860.00
2022-07-25T11:21:06.710Z,2876.00
2022-07-25T11:22:06.598Z,2912.00
2022-07-25T11:23:05.593Z,2860.00
2022-07-25T11:24:05.605Z,2944.00
2022-07-25T11:25:05.574Z,2884.00
2022-07-25T11:26:05.570Z,2796.00
2022-07-25T11:27:11.277Z,2348.00
2022-07-25T11:28:07.551Z,2544.00
2022-07-25T11:29:05.836Z,2756.00
2022-07-25T11:30:05.545Z,2976.00
2022-07-25T11:31:05.531Z,2828.00
2022-07-25T11:32:05.614Z,3560.00
2022-07-25T11:33:05.527Z,3544.00
2022-07-25T11:34:05.544Z,3492.00
2022-07-25T11:35:05.500Z,3488.00
2022-07-25T11:36:06.496Z,3500.00
2022-07-25T11:37:05.490Z,3520.00
2022-07-25T11:38:06.463Z,3520.00
2022-07-25T11:39:05.751Z,3224.00
2022-07-25T11:40:05.474Z,3372.00
2022-07-25T11:41:05.469Z,2728.00
2022-07-25T11:42:05.459Z,2616.00
2022-07-25T11:43:05.463Z,3340.00
2022-07-25T11:44:05.484Z,3332.00
2022-07-25T11:45:05.436Z,3300.00
2022-07-25T11:46:05.489Z,3252.00
2022-07-25T11:47:05.433Z,2736.00
2022-07-25T11:48:05.421Z,3008.00
2022-07-25T11:49:06.097Z,3296.00
2022-07-25T11:50:05.420Z,3348.00
2022-07-25T11:51:05.386Z,3212.00
2022-07-25T11:52:05.388Z,2756.00
2022-07-25T11:53:05.379Z,1932.00
2022-07-25T11:54:05.374Z,2800.00
2022-07-25T11:55:05.389Z,3428.00
2022-07-25T11:56:25.418Z,3436.00
2022-07-25T11:57:07.384Z,3308.00
2022-07-25T11:58:05.338Z,2280.00
2022-07-25T11:59:05.726Z,2008.00
2022-07-25T12:00:05.419Z,2100.00
2022-07-25T12:01:05.319Z,2120.00
2022-07-25T12:02:05.426Z,2344.00
2022-07-25T12:03:05.470Z,2588.00
2022-07-25T12:04:05.297Z,3172.00
2022-07-25T12:05:05.316Z,3380.00
2022-07-25T12:06:05.287Z,3012.00
2022-07-25T12:07:05.271Z,3452.00
2022-07-25T12:08:05.264Z,2904.00
2022-07-25T12:09:05.504Z,3124.00
2022-07-25T12:10:05.309Z,3116.00
2022-07-25T12:11:05.247Z,3260.00
2022-07-25T12:12:05.264Z,3220.00
2022-07-25T12:13:05.228Z,2908.00
2022-07-25T12:14:05.225Z,2492.00
2022-07-25T12:15:05.243Z,3076.00
2022-07-25T12:16:05.213Z,2644.00
2022-07-25T12:17:05.285Z,2276.00
2022-07-25T12:18:05.191Z,2232.00
2022-07-25T12:19:05.421Z,2188.00
2022-07-25T12:20:10.638Z,2224.00
2022-07-25T12:21:07.172Z,2276.00
2022-07-25T12:22:05.163Z,2308.00
2022-07-25T12:23:05.166Z,2948.00
2022-07-25T12:24:05.156Z,2864.00